createdAt,value
2022-12-17T00:01:15.696Z,476.42
2022-12-17T00:02:34.246Z,483.17
2022-12-17T00:03:52.794Z,498.52
2022-12-17T00:05:11.972Z,505.73
2022-12-17T00:06:30.355Z,499.02
2022-12-17T00:07:48.693Z,507.83
2022-12-17T00:09:07.153Z,525.55
2022-12-17T00:10:28.859Z,508.67
2022-12-17T00:11:47.221Z,489.74
2022-12-17T00:13:05.543Z,474.68
2022-12-17T00:14:23.808Z,463.96
2022-12-17T00:15:43.097Z,469.67
2022-12-17T00:17:03.445Z,458.65
2022-12-17T00:18:32.175Z,468.24
2022-12-17T00:19:50.465Z,464.94
2022-12-17T00:21:10.192Z,462.22
2022-12-17T00:22:28.491Z,454.69
2022-12-17T00:23:46.654Z,430.90
2022-12-17T00:25:07.855Z,434.41
2022-12-17T00:26:29.514Z,430.61
2022-12-17T00:27:47.844Z,439.06
2022-12-17T00:29:07.382Z,434.12
2022-12-17T00:30:26.913Z,450.50
2022-12-17T00:31:46.700Z,451.02
2022-12-17T00:33:06.273Z,458.78
2022-12-17T00:34:39.176Z,444.11
2022-12-17T00:36:00.084Z,447.07
2022-12-17T00:37:19.201Z,441.43
2022-12-17T00:38:37.498Z,471.59
2022-12-17T00:39:59.218Z,439.43
2022-12-17T00:41:20.015Z,406.42
2022-12-17T00:42:56.598Z,416.20
2022-12-17T00:44:32.388Z,411.71
2022-12-17T00:45:51.530Z,418.57
2022-12-17T00:47:10.453Z,441.19
2022-12-17T00:48:29.598Z,412.84
2022-12-17T00:49:47.910Z,411.43
2022-12-17T00:51:06.267Z,408.93
2022-12-17T00:52:24.578Z,416.75
2022-12-17T00:53:43.853Z,388.03
2022-12-17T00:55:02.171Z,383.56
2022-12-17T00:56:20.834Z,397.94
2022-12-17T00:57:41.720Z,381.35
2022-12-17T00:59:00.837Z,394.69
2022-12-17T01:00:23.341Z,390.49
2022-12-17T01:01:41.760Z,408.71
2022-12-17T01:03:00.257Z,400.21
2022-12-17T01:04:19.983Z,407.49
2022-12-17T01:05:38.390Z,410.55
2022-12-17T01:06:56.615Z,392.65
2022-12-17T01:08:23.751Z,404.35
2022-12-17T01:09:42.842Z,420.31
2022-12-17T01:11:01.140Z,434.69
2022-12-17T01:12:20.070Z,405.53
2022-12-17T01:13:42.107Z,401.80
2022-12-17T01:15:02.272Z,406.49
2022-12-17T01:16:23.902Z,400.87
2022-12-17T01:17:42.298Z,404.76
2022-12-17T01:19:00.606Z,415.46
2022-12-17T01:20:21.568Z,409.59
2022-12-17T01:21:39.910Z,412.00
2022-12-17T01:22:58.367Z,421.55
2022-12-17T01:24:16.791Z,414.42
2022-12-17T01:25:35.994Z,411.45
2022-12-17T01:26:54.706Z,434.76
2022-12-17T01:28:14.500Z,414.85
2022-12-17T01:29:35.402Z,410.80
2022-12-17T01:31:00.610Z,404.13
2022-12-17T01:32:19.039Z,407.35
2022-12-17T01:33:38.008Z,402.65
2022-12-17T01:34:56.727Z,423.27
2022-12-17T01:36:16.086Z,418.74
2022-12-17T01:37:34.437Z,410.24
2022-12-17T01:38:52.759Z,422.51
2022-12-17T01:40:11.133Z,423.70
2022-12-17T01:41:34.538Z,405.70
2022-12-17T01:42:55.127Z,403.33
2022-12-17T01:44:13.557Z,404.80
2022-12-17T01:45:35.034Z,409.48
2022-12-17T01:47:06.598Z,429.24
2022-12-17T01:48:34.153Z,416.30
2022-12-17T01:49:56.285Z,429.07
2022-12-17T01:51:19.156Z,425.38
2022-12-17T01:52:58.092Z,432.66
2022-12-17T01:54:20.730Z,434.48
2022-12-17T01:55:39.365Z,443.58
2022-12-17T01:56:59.787Z,437.11
2022-12-17T01:58:19.184Z,424.56
2022-12-17T01:59:54.221Z,426.69
2022-12-17T02:01:15.186Z,443.80
2022-12-17T02:02:33.713Z,437.46
2022-12-17T02:03:53.358Z,432.80
2022-12-17T02:05:11.741Z,436.33
2022-12-17T02:06:41.521Z,436.41
2022-12-17T02:08:18.900Z,440.23
2022-12-17T02:09:57.837Z,425.51
2022-12-17T02:11:30.830Z,431.03
2022-12-17T02:13:02.809Z,420.67
2022-12-17T02:14:37.535Z,428.69
2022-12-17T02:16:08.690Z,438.64
2022-12-17T02:17:39.702Z,429.45
2022-12-17T02:19:06.796Z,426.79
2022-12-17T02:20:42.470Z,422.62
2022-12-17T02:22:13.818Z,435.91
2022-12-17T02:23:56.560Z,428.66
2022-12-17T02:25:34.179Z,436.53
2022-12-17T02:26:59.483Z,440.69
2022-12-17T02:28:20.107Z,441.91
2022-12-17T02:29:44.657Z,449.52
2022-12-17T02:31:04.017Z,433.34
2022-12-17T02:32:26.116Z,447.23
2022-12-17T02:33:46.459Z,423.94
2022-12-17T02:35:07.059Z,439.33
2022-12-17T02:36:27.284Z,441.56
2022-12-17T02:37:45.619Z,444.20
2022-12-17T02:39:04.883Z,473.57
2022-12-17T02:40:24.879Z,462.14
2022-12-17T02:41:49.557Z,458.54
2022-12-17T02:43:14.701Z,450.57
2022-12-17T02:44:39.525Z,458.75
2022-12-17T02:45:59.271Z,454.90
2022-12-17T02:47:23.981Z,456.26
2022-12-17T02:48:43.752Z,475.38
2022-12-17T02:50:03.108Z,465.81
2022-12-17T02:51:27.560Z,454.24
2022-12-17T02:52:51.934Z,454.27
2022-12-17T02:54:10.273Z,449.83
2022-12-17T02:55:29.555Z,451.10
2022-12-17T02:56:47.917Z,432.27
2022-12-17T02:58:08.647Z,443.35
2022-12-17T02:59:29.897Z,433.77
2022-12-17T03:00:54.364Z,422.62
2022-12-17T03:02:12.936Z,420.64
2022-12-17T03:03:31.492Z,437.66
2022-12-17T03:04:49.851Z,417.42
2022-12-17T03:06:09.101Z,432.50
2022-12-17T03:07:36.299Z,435.84
2022-12-17T03:08:57.567Z,423.73
2022-12-17T03:10:15.941Z,427.13
2022-12-17T03:11:35.437Z,437.64
2022-12-17T03:12:53.810Z,429.91
2022-12-17T03:14:12.202Z,445.54
2022-12-17T03:15:33.138Z,429.68
2022-12-17T03:16:52.377Z,429.24
2022-12-17T03:18:10.666Z,437.76
2022-12-17T03:19:29.310Z,436.41
2022-12-17T03:20:47.649Z,439.35
2022-12-17T03:22:09.203Z,442.34
2022-12-17T03:23:28.436Z,462.17
2022-12-17T03:24:46.683Z,462.22
2022-12-17T03:26:04.991Z,454.93
2022-12-17T03:27:26.927Z,448.08
2022-12-17T03:28:45.256Z,461.63
2022-12-17T03:30:03.511Z,444.03
2022-12-17T03:31:24.594Z,450.81
2022-12-17T03:32:43.857Z,451.02
2022-12-17T03:34:02.729Z,435.18
2022-12-17T03:35:22.098Z,433.25
2022-12-17T03:36:40.524Z,415.97
2022-12-17T03:37:59.643Z,425.18
2022-12-17T03:39:18.271Z,416.45
2022-12-17T03:40:36.608Z,421.74
2022-12-17T03:41:55.000Z,431.72
2022-12-17T03:43:20.503Z,448.00
2022-12-17T03:44:44.575Z,449.84
2022-12-17T03:46:08.436Z,446.09
2022-12-17T03:47:41.220Z,461.18
2022-12-17T03:49:00.318Z,466.67
2022-12-17T03:50:19.191Z,460.47
2022-12-17T03:51:37.607Z,458.18
2022-12-17T03:52:56.060Z,462.85
2022-12-17T03:54:15.208Z,477.63
2022-12-17T03:55:33.556Z,480.98
2022-12-17T03:56:51.900Z,475.87
2022-12-17T03:58:10.306Z,468.84
2022-12-17T03:59:30.181Z,461.73
2022-12-17T04:00:48.545Z,464.29
2022-12-17T04:02:06.993Z,455.67
2022-12-17T04:03:28.203Z,466.74
2022-12-17T04:04:47.417Z,455.67
2022-12-17T04:06:05.772Z,450.99
2022-12-17T04:07:24.045Z,451.32
2022-12-17T04:08:54.671Z,451.55
2022-12-17T04:10:13.818Z,466.15
2022-12-17T04:11:32.131Z,442.07
2022-12-17T04:12:50.503Z,444.36
2022-12-17T04:14:09.036Z,458.80
2022-12-17T04:15:28.234Z,461.82
2022-12-17T04:16:46.517Z,476.72
2022-12-17T04:18:05.113Z,469.83
2022-12-17T04:19:26.576Z,466.06
2022-12-17T04:20:45.857Z,484.62
2022-12-17T04:22:04.352Z,487.42
2022-12-17T04:23:22.628Z,498.73
2022-12-17T04:24:41.008Z,472.57
2022-12-17T04:26:00.149Z,479.06
2022-12-17T04:27:18.449Z,473.49
2022-12-17T04:28:36.709Z,482.21
2022-12-17T04:29:55.043Z,481.39
2022-12-17T04:31:19.855Z,474.09
2022-12-17T04:32:38.225Z,467.65
2022-12-17T04:33:56.654Z,478.87
2022-12-17T04:35:17.655Z,481.82
2022-12-17T04:36:36.744Z,464.83
2022-12-17T04:37:55.054Z,473.68
2022-12-17T04:39:13.470Z,515.21
2022-12-17T04:40:32.128Z,521.22
2022-12-17T04:41:51.294Z,496.55
2022-12-17T04:43:09.541Z,493.91
2022-12-17T04:44:27.752Z,486.38
2022-12-17T04:45:46.086Z,543.00
2022-12-17T04:47:05.240Z,531.25
2022-12-17T04:48:24.992Z,488.24
2022-12-17T04:49:43.322Z,455.55
2022-12-17T04:51:04.257Z,456.81
2022-12-17T04:52:38.174Z,459.41
2022-12-17T04:53:56.514Z,445.43
2022-12-17T04:55:14.785Z,433.16
2022-12-17T04:56:34.327Z,440.07
2022-12-17T04:58:01.951Z,440.46
2022-12-17T04:59:20.454Z,442.97
2022-12-17T05:00:38.658Z,445.47
2022-12-17T05:01:56.957Z,439.45
2022-12-17T05:03:21.108Z,467.19
2022-12-17T05:04:39.562Z,451.61
2022-12-17T05:05:57.826Z,449.24
2022-12-17T05:07:18.935Z,436.75
2022-12-17T05:08:41.373Z,454.76
2022-12-17T05:10:00.194Z,439.15
2022-12-17T05:11:20.701Z,461.07
2022-12-17T05:12:39.170Z,446.35
2022-12-17T05:13:58.361Z,436.20
2022-12-17T05:15:16.908Z,433.97
2022-12-17T05:16:35.175Z,440.90
2022-12-17T05:17:53.504Z,450.84
2022-12-17T05:19:12.656Z,450.33
2022-12-17T05:20:31.072Z,453.50
2022-12-17T05:21:49.364Z,458.48
2022-12-17T05:23:19.372Z,455.21
2022-12-17T05:24:38.830Z,461.21
2022-12-17T05:25:57.162Z,465.14
2022-12-17T05:27:15.509Z,444.11
2022-12-17T05:28:33.820Z,446.25
2022-12-17T05:29:52.936Z,439.02
2022-12-17T05:31:11.896Z,474.36
2022-12-17T05:32:30.335Z,462.33
2022-12-17T05:33:48.629Z,453.92
2022-12-17T05:35:07.693Z,473.11
2022-12-17T05:36:26.116Z,467.58
2022-12-17T05:37:44.436Z,482.37
2022-12-17T05:39:06.125Z,497.04
2022-12-17T05:40:27.280Z,469.39
2022-12-17T05:41:45.770Z,457.09
2022-12-17T05:43:11.700Z,463.95
2022-12-17T05:44:30.063Z,465.12
2022-12-17T05:45:49.178Z,469.49
2022-12-17T05:47:07.528Z,480.06
2022-12-17T05:48:26.011Z,460.29
2022-12-17T05:49:44.403Z,486.47
2022-12-17T05:51:06.646Z,487.24
2022-12-17T05:52:24.980Z,502.72
2022-12-17T05:53:43.456Z,506.42
2022-12-17T05:55:04.449Z,491.16
2022-12-17T05:56:23.500Z,488.61
2022-12-17T05:57:42.224Z,520.06
2022-12-17T05:59:00.616Z,493.75
2022-12-17T06:00:19.586Z,512.15
2022-12-17T06:01:39.184Z,497.61
2022-12-17T06:02:57.721Z,498.94
2022-12-17T06:04:16.372Z,483.09
2022-12-17T06:05:34.775Z,496.21
2022-12-17T06:06:54.139Z,516.89
2022-12-17T06:08:19.950Z,526.33
2022-12-17T06:09:38.200Z,520.43
2022-12-17T06:10:59.128Z,518.04
2022-12-17T06:12:18.243Z,524.66
2022-12-17T06:13:37.141Z,504.87
2022-12-17T06:14:55.752Z,512.95
2022-12-17T06:16:14.318Z,520.47
2022-12-17T06:17:34.061Z,547.19
2022-12-17T06:18:52.999Z,535.60
2022-12-17T06:20:11.282Z,520.71
2022-12-17T06:21:29.611Z,511.24
2022-12-17T06:22:48.716Z,503.09
2022-12-17T06:24:07.080Z,497.19
2022-12-17T06:25:25.335Z,509.45
2022-12-17T06:26:48.866Z,509.00
2022-12-17T06:28:14.682Z,486.75
2022-12-17T06:29:32.994Z,501.26
2022-12-17T06:30:51.747Z,537.03
2022-12-17T06:32:10.119Z,530.12
2022-12-17T06:33:38.641Z,511.24
2022-12-17T06:34:57.140Z,535.84
2022-12-17T06:36:21.671Z,556.79
2022-12-17T06:37:40.989Z,551.86
2022-12-17T06:39:00.134Z,565.89
2022-12-17T06:40:18.953Z,563.24
2022-12-17T06:41:37.219Z,541.59
2022-12-17T06:43:07.990Z,531.69
2022-12-17T06:44:27.462Z,523.92
2022-12-17T06:45:45.806Z,537.63
2022-12-17T06:47:04.159Z,543.83
2022-12-17T06:48:24.763Z,546.93
2022-12-17T06:49:44.501Z,549.36
2022-12-17T06:51:03.276Z,572.74
2022-12-17T06:52:21.611Z,534.66
2022-12-17T06:53:40.068Z,532.03
2022-12-17T06:54:59.516Z,543.91
2022-12-17T06:56:18.491Z,556.19
2022-12-17T06:57:40.835Z,562.34
2022-12-17T06:59:03.896Z,586.10
2022-12-17T07:00:25.975Z,601.28
2022-12-17T07:01:45.140Z,625.91
2022-12-17T07:03:03.768Z,597.50
2022-12-17T07:04:22.681Z,593.14
2022-12-17T07:05:43.067Z,584.60
2022-12-17T07:07:01.450Z,580.55
2022-12-17T07:08:20.247Z,577.68
2022-12-17T07:09:38.706Z,593.92
2022-12-17T07:10:57.875Z,570.12
2022-12-17T07:12:16.211Z,551.19
2022-12-17T07:13:34.804Z,557.26
2022-12-17T07:14:55.983Z,552.03
2022-12-17T07:16:15.879Z,560.65
2022-12-17T07:17:34.224Z,564.50
2022-12-17T07:18:52.540Z,563.52
2022-12-17T07:20:10.953Z,571.24
2022-12-17T07:21:30.163Z,561.05
2022-12-17T07:22:48.616Z,581.39
2022-12-17T07:24:07.269Z,626.97
2022-12-17T07:25:25.732Z,668.05
2022-12-17T07:26:44.831Z,691.84
2022-12-17T07:28:24.159Z,638.82
2022-12-17T07:29:42.390Z,623.90
2022-12-17T07:31:03.326Z,623.01
2022-12-17T07:32:22.394Z,623.86
2022-12-17T07:33:40.740Z,585.77
2022-12-17T07:34:59.304Z,587.51
2022-12-17T07:36:18.103Z,599.27
2022-12-17T07:37:37.799Z,611.07
2022-12-17T07:38:56.790Z,610.60
2022-12-17T07:40:15.328Z,594.79
2022-12-17T07:41:33.933Z,609.59
2022-12-17T07:42:55.307Z,664.84
2022-12-17T07:44:13.806Z,642.42
2022-12-17T07:45:38.084Z,613.11
2022-12-17T07:46:59.298Z,617.73
2022-12-17T07:48:19.086Z,626.42
2022-12-17T07:49:37.551Z,606.34
2022-12-17T07:50:55.883Z,611.80
2022-12-17T07:52:14.571Z,621.16
2022-12-17T07:53:34.107Z,640.93
2022-12-17T07:54:52.793Z,636.15
2022-12-17T07:56:11.216Z,643.90
2022-12-17T07:57:29.825Z,627.39
2022-12-17T07:58:49.316Z,621.17
2022-12-17T08:00:07.737Z,618.20
2022-12-17T08:01:26.433Z,670.49
2022-12-17T08:02:47.937Z,618.40
2022-12-17T08:04:07.422Z,630.34
2022-12-17T08:05:25.828Z,622.01
2022-12-17T08:06:44.139Z,681.48
2022-12-17T08:08:02.876Z,687.83
2022-12-17T08:09:22.131Z,743.51
2022-12-17T08:10:40.474Z,813.73
2022-12-17T08:11:58.757Z,701.85
2022-12-17T08:13:21.025Z,642.14
2022-12-17T08:14:40.108Z,639.45
2022-12-17T08:15:59.169Z,737.00
2022-12-17T08:17:17.743Z,752.49
2022-12-17T08:18:38.996Z,678.51
2022-12-17T08:19:58.158Z,601.50
2022-12-17T08:21:16.567Z,637.43
2022-12-17T08:22:35.241Z,651.29
2022-12-17T08:23:53.609Z,664.47
2022-12-17T08:25:12.776Z,696.01
2022-12-17T08:26:31.212Z,717.12
2022-12-17T08:27:49.658Z,752.34
2022-12-17T08:29:07.964Z,757.18
2022-12-17T08:30:28.443Z,820.17
2022-12-17T08:31:49.088Z,685.25
2022-12-17T08:33:07.536Z,638.34
2022-12-17T08:34:28.535Z,614.88
2022-12-17T08:35:47.667Z,631.11
2022-12-17T08:37:06.005Z,643.68
2022-12-17T08:38:24.199Z,646.83
2022-12-17T08:39:42.646Z,660.80
2022-12-17T08:41:01.789Z,665.65
2022-12-17T08:42:20.581Z,648.66
2022-12-17T08:43:39.272Z,631.66
2022-12-17T08:44:58.028Z,736.56
2022-12-17T08:46:17.353Z,655.85
2022-12-17T08:47:35.873Z,609.49
2022-12-17T08:48:56.125Z,625.48
2022-12-17T08:50:17.328Z,630.86
2022-12-17T08:51:37.129Z,638.53
2022-12-17T08:52:55.746Z,608.79
2022-12-17T08:54:14.073Z,608.95
2022-12-17T08:55:33.143Z,651.27
2022-12-17T08:56:54.370Z,658.50
2022-12-17T08:58:16.196Z,638.86
2022-12-17T08:59:34.609Z,652.50
2022-12-17T09:00:53.201Z,638.75
2022-12-17T09:02:19.112Z,677.64
2022-12-17T09:03:38.063Z,688.54
2022-12-17T09:04:58.039Z,656.44
2022-12-17T09:06:19.693Z,656.39
2022-12-17T09:07:39.182Z,627.57
2022-12-17T09:08:58.099Z,645.30
2022-12-17T09:10:20.417Z,717.41
2022-12-17T09:11:39.119Z,671.54
2022-12-17T09:13:04.177Z,673.98
2022-12-17T09:14:25.515Z,681.31
2022-12-17T09:15:49.550Z,675.49
2022-12-17T09:17:08.093Z,626.46
2022-12-17T09:18:27.370Z,616.14
2022-12-17T09:19:45.834Z,678.46
2022-12-17T09:21:08.635Z,872.58
2022-12-17T09:22:29.967Z,757.83
2022-12-17T09:23:49.455Z,834.95
2022-12-17T09:25:22.591Z,717.68
2022-12-17T09:26:41.293Z,667.06
2022-12-17T09:27:59.691Z,745.17
2022-12-17T09:29:18.867Z,660.24
2022-12-17T09:30:37.459Z,632.04
2022-12-17T09:31:55.906Z,606.32
2022-12-17T09:33:14.411Z,609.06
2022-12-17T09:34:34.984Z,616.01
2022-12-17T09:36:02.216Z,601.55
2022-12-17T09:37:21.471Z,613.59
2022-12-17T09:38:42.641Z,616.40
2022-12-17T09:40:01.846Z,614.52
2022-12-17T09:41:41.665Z,609.83
2022-12-17T09:43:13.422Z,633.72
2022-12-17T09:44:42.630Z,608.06
2022-12-17T09:46:18.381Z,605.16
2022-12-17T09:48:00.153Z,639.92
2022-12-17T09:49:31.356Z,637.18
2022-12-17T09:50:50.213Z,670.29
2022-12-17T09:52:12.685Z,664.95
2022-12-17T09:53:40.309Z,754.01
2022-12-17T09:55:07.314Z,685.73
2022-12-17T09:56:30.602Z,678.47
2022-12-17T09:57:53.146Z,591.90
2022-12-17T09:59:20.211Z,578.06
2022-12-17T10:00:42.332Z,632.36
2022-12-17T10:02:01.093Z,620.68
2022-12-17T10:03:31.462Z,607.40
2022-12-17T10:04:56.065Z,637.67
2022-12-17T10:06:26.729Z,658.50
2022-12-17T10:07:52.989Z,659.32
2022-12-17T10:09:18.764Z,658.96
2022-12-17T10:10:46.069Z,659.79
2022-12-17T10:12:04.493Z,617.38
2022-12-17T10:13:30.286Z,623.24
2022-12-17T10:14:51.523Z,628.99
2022-12-17T10:16:10.134Z,599.90
2022-12-17T10:17:34.235Z,589.81
2022-12-17T10:18:52.686Z,583.65
2022-12-17T10:20:12.276Z,558.34
2022-12-17T10:21:33.766Z,571.82
2022-12-17T10:23:01.129Z,574.87
2022-12-17T10:24:26.779Z,622.43
2022-12-17T10:25:50.498Z,585.01
2022-12-17T10:27:08.896Z,590.12
2022-12-17T10:28:31.600Z,606.16
2022-12-17T10:29:50.423Z,589.80
2022-12-17T10:31:10.438Z,562.03
2022-12-17T10:32:48.052Z,529.64
2022-12-17T10:34:12.609Z,578.46
2022-12-17T10:35:37.209Z,586.12
2022-12-17T10:37:03.854Z,574.75
2022-12-17T10:38:37.833Z,601.48
2022-12-17T10:39:58.288Z,586.63
2022-12-17T10:41:38.699Z,577.96
2022-12-17T10:43:01.755Z,576.68
2022-12-17T10:44:36.988Z,580.01
2022-12-17T10:45:55.294Z,577.21
2022-12-17T10:47:14.811Z,550.61
2022-12-17T10:48:37.570Z,566.88
2022-12-17T10:49:55.686Z,559.68
2022-12-17T10:51:14.086Z,598.59
2022-12-17T10:52:44.182Z,626.42
2022-12-17T10:54:07.255Z,599.01
2022-12-17T10:55:40.655Z,594.04
2022-12-17T10:57:15.359Z,665.35
2022-12-17T10:58:40.951Z,758.90
2022-12-17T11:00:03.395Z,879.60
2022-12-17T11:01:33.726Z,716.67
2022-12-17T11:02:53.798Z,656.23
2022-12-17T11:04:14.176Z,587.61
2022-12-17T11:05:43.173Z,586.90
2022-12-17T11:07:15.498Z,593.35
2022-12-17T11:08:36.289Z,583.13
2022-12-17T11:10:07.059Z,574.60
2022-12-17T11:11:34.672Z,692.99
2022-12-17T11:13:03.155Z,663.92
2022-12-17T11:14:28.427Z,618.37
2022-12-17T11:15:56.432Z,573.60
2022-12-17T11:17:22.926Z,580.59
2022-12-17T11:18:50.183Z,555.16
2022-12-17T11:20:18.980Z,571.83
2022-12-17T11:21:48.756Z,633.98
2022-12-17T11:23:14.945Z,616.59
2022-12-17T11:24:43.090Z,652.70
2022-12-17T11:26:16.053Z,582.22
2022-12-17T11:27:44.309Z,588.32
2022-12-17T11:29:06.493Z,581.97
2022-12-17T11:30:30.923Z,610.40
2022-12-17T11:32:17.907Z,622.40
2022-12-17T11:33:46.184Z,619.33
2022-12-17T11:35:21.507Z,576.02
2022-12-17T11:36:55.979Z,586.61
2022-12-17T11:38:31.581Z,649.65
2022-12-17T11:40:03.237Z,603.22
2022-12-17T11:41:40.018Z,560.55
2022-12-17T11:43:12.569Z,574.88
2022-12-17T11:45:02.355Z,651.27
2022-12-17T11:46:42.649Z,595.80
2022-12-17T11:48:19.389Z,595.26
2022-12-17T11:49:57.557Z,626.48
2022-12-17T11:51:27.747Z,621.19
2022-12-17T11:53:01.131Z,685.15
2022-12-17T11:54:35.998Z,630.64
2022-12-17T11:56:09.879Z,643.94
2022-12-17T11:57:45.307Z,628.84
2022-12-17T11:59:14.173Z,611.46
2022-12-17T12:00:39.368Z,575.59
2022-12-17T12:02:12.504Z,586.89
2022-12-17T12:03:54.101Z,622.87
2022-12-17T12:05:36.059Z,600.93
2022-12-17T12:07:15.344Z,587.63
2022-12-17T12:08:44.750Z,557.99
2022-12-17T12:10:15.995Z,613.46
2022-12-17T12:11:51.187Z,620.54
2022-12-17T12:13:37.129Z,611.26
2022-12-17T12:15:16.227Z,690.40
2022-12-17T12:16:55.508Z,633.81
2022-12-17T12:18:26.120Z,645.47
2022-12-17T12:20:01.532Z,616.80
2022-12-17T12:21:45.597Z,662.16
2022-12-17T12:23:23.479Z,646.54
2022-12-17T12:25:16.206Z,626.95
2022-12-17T12:26:41.069Z,615.18
2022-12-17T12:28:15.589Z,626.67
2022-12-17T12:29:52.275Z,633.95
2022-12-17T12:31:28.784Z,646.97
2022-12-17T12:33:12.308Z,751.92
2022-12-17T12:34:40.983Z,671.14
2022-12-17T12:36:02.562Z,679.48
2022-12-17T12:37:32.296Z,588.01
2022-12-17T12:38:59.904Z,690.93
2022-12-17T12:40:37.576Z,683.44
2022-12-17T12:42:10.369Z,650.63
2022-12-17T12:43:38.529Z,659.90
2022-12-17T12:45:19.423Z,706.40
2022-12-17T12:46:54.051Z,725.59
2022-12-17T12:48:30.807Z,707.02
2022-12-17T12:50:02.232Z,710.73
2022-12-17T12:51:36.373Z,700.00
2022-12-17T12:52:55.380Z,718.44
2022-12-17T12:54:39.773Z,677.25
2022-12-17T12:55:59.168Z,665.39
2022-12-17T12:57:17.612Z,657.18
2022-12-17T12:58:46.637Z,641.04
2022-12-17T13:00:09.208Z,656.51
2022-12-17T13:01:30.287Z,748.87
2022-12-17T13:02:50.484Z,686.94
2022-12-17T13:04:17.261Z,708.52
2022-12-17T13:05:40.348Z,695.69
2022-12-17T13:06:54.460Z,688.41
2022-12-17T13:08:04.922Z,681.92
2022-12-17T13:09:35.011Z,614.34
2022-12-17T13:10:39.922Z,653.29
2022-12-17T13:11:49.742Z,681.14
2022-12-17T13:12:53.856Z,716.51
2022-12-17T13:14:16.834Z,661.08
2022-12-17T13:15:40.055Z,634.42
2022-12-17T13:16:59.513Z,630.41
2022-12-17T13:18:26.600Z,683.05
2022-12-17T13:19:40.882Z,636.11
2022-12-17T13:20:47.322Z,615.78
2022-12-17T13:21:51.668Z,633.97
2022-12-17T13:23:18.694Z,665.56
2022-12-17T13:24:31.015Z,651.53
2022-12-17T13:25:35.165Z,776.07
2022-12-17T13:26:52.704Z,794.00
2022-12-17T13:27:57.131Z,668.32
2022-12-17T13:29:15.557Z,625.68
2022-12-17T13:30:37.599Z,596.10
2022-12-17T13:32:05.296Z,623.86
2022-12-17T13:33:39.555Z,650.70
2022-12-17T13:35:21.057Z,807.94
2022-12-17T13:36:44.856Z,817.58
2022-12-17T13:38:08.970Z,849.79
2022-12-17T13:39:42.571Z,737.28
2022-12-17T13:41:09.519Z,808.41
2022-12-17T13:42:35.333Z,867.39
2022-12-17T13:43:48.770Z,754.05
2022-12-17T13:44:55.317Z,736.10
2022-12-17T13:46:01.753Z,735.47
2022-12-17T13:47:08.532Z,734.26
2022-12-17T13:48:23.870Z,715.05
2022-12-17T13:49:33.013Z,667.73
2022-12-17T13:50:39.944Z,767.77
2022-12-17T13:51:46.157Z,774.45
2022-12-17T13:52:49.605Z,803.26
2022-12-17T13:53:58.018Z,676.97
2022-12-17T13:55:10.863Z,620.69
2022-12-17T13:56:24.960Z,708.18
2022-12-17T13:57:31.904Z,711.73
2022-12-17T13:58:35.521Z,654.44
2022-12-17T13:59:42.008Z,650.26
2022-12-17T14:00:48.257Z,717.18
2022-12-17T14:01:57.771Z,747.95
2022-12-17T14:03:15.111Z,821.26
2022-12-17T14:04:29.076Z,727.76
2022-12-17T14:05:43.932Z,595.19
2022-12-17T14:06:51.522Z,576.31
2022-12-17T14:08:01.955Z,641.98
2022-12-17T14:09:09.974Z,664.67
2022-12-17T14:10:20.037Z,654.59
2022-12-17T14:11:39.916Z,620.66
2022-12-17T14:12:47.307Z,745.61
2022-12-17T14:13:51.593Z,790.06
2022-12-17T14:15:02.810Z,603.40
2022-12-17T14:16:07.684Z,600.29
2022-12-17T14:17:23.221Z,695.23
2022-12-17T14:18:29.853Z,589.33
2022-12-17T14:19:35.065Z,563.12
2022-12-17T14:20:44.488Z,601.37
2022-12-17T14:21:51.831Z,583.48
2022-12-17T14:23:06.318Z,876.64
2022-12-17T14:24:18.033Z,824.44
2022-12-17T14:25:30.091Z,592.70
2022-12-17T14:26:36.063Z,597.88
2022-12-17T14:27:43.203Z,680.42
2022-12-17T14:28:52.932Z,608.48
2022-12-17T14:29:58.048Z,624.49
2022-12-17T14:31:27.669Z,638.82
2022-12-17T14:32:39.992Z,604.05
2022-12-17T14:33:44.915Z,598.86
2022-12-17T14:34:53.579Z,562.21
2022-12-17T14:36:10.441Z,636.63
2022-12-17T14:37:29.315Z,651.32
2022-12-17T14:38:43.944Z,750.68
2022-12-17T14:39:58.721Z,762.58
2022-12-17T14:41:28.363Z,806.22
2022-12-17T14:42:40.485Z,591.85
2022-12-17T14:43:43.896Z,610.48
2022-12-17T14:44:57.134Z,715.94
2022-12-17T14:46:17.534Z,1005.67
2022-12-17T14:47:28.164Z,779.84
2022-12-17T14:48:47.304Z,807.74
2022-12-17T14:50:05.665Z,902.50
2022-12-17T14:51:22.971Z,690.93
2022-12-17T14:52:38.067Z,929.67
2022-12-17T14:53:45.077Z,941.40
2022-12-17T14:54:51.053Z,620.86
2022-12-17T14:56:00.273Z,696.35
2022-12-17T14:57:06.925Z,747.14
2022-12-17T14:58:22.045Z,720.97
2022-12-17T14:59:38.278Z,769.65
2022-12-17T15:00:46.438Z,971.17
2022-12-17T15:01:56.129Z,923.84
2022-12-17T15:03:00.004Z,905.07
2022-12-17T15:04:06.474Z,830.24
2022-12-17T15:05:17.149Z,803.02
2022-12-17T15:06:27.198Z,793.30
2022-12-17T15:07:33.962Z,736.00
2022-12-17T15:08:45.367Z,1136.06
2022-12-17T15:09:48.732Z,1321.12
2022-12-17T15:10:55.881Z,1240.89
2022-12-17T15:12:01.847Z,948.63
2022-12-17T15:13:07.805Z,902.36
2022-12-17T15:14:13.843Z,877.48
2022-12-17T15:15:18.326Z,815.22
2022-12-17T15:16:24.994Z,777.83
2022-12-17T15:17:30.886Z,720.94
2022-12-17T15:18:37.774Z,683.30
2022-12-17T15:19:41.891Z,596.36
2022-12-17T15:20:48.531Z,560.49
2022-12-17T15:21:58.041Z,537.68
2022-12-17T15:23:04.417Z,554.26
2022-12-17T15:24:21.682Z,534.49
2022-12-17T15:25:25.123Z,509.35
2022-12-17T15:26:31.195Z,530.85
2022-12-17T15:27:38.781Z,594.72
2022-12-17T15:28:48.027Z,621.55
2022-12-17T15:29:54.233Z,636.38
2022-12-17T15:30:57.951Z,639.78
2022-12-17T15:32:04.345Z,577.68
2022-12-17T15:33:12.060Z,596.26
2022-12-17T15:34:15.534Z,583.54
2022-12-17T15:35:21.803Z,586.44
2022-12-17T15:36:25.193Z,675.58
2022-12-17T15:37:33.901Z,619.64
2022-12-17T15:38:41.528Z,625.59
2022-12-17T15:39:45.279Z,622.47
2022-12-17T15:40:51.299Z,610.92
2022-12-17T15:42:09.709Z,593.84
2022-12-17T15:43:13.912Z,615.02
2022-12-17T15:44:20.892Z,577.59
2022-12-17T15:45:24.374Z,585.08
2022-12-17T15:46:30.460Z,604.40
2022-12-17T15:47:33.986Z,583.26
2022-12-17T15:48:46.412Z,552.45
2022-12-17T15:49:56.541Z,567.60
2022-12-17T15:51:03.499Z,566.99
2022-12-17T15:52:07.245Z,624.66
2022-12-17T15:53:15.914Z,617.42
2022-12-17T15:54:19.465Z,605.49
2022-12-17T15:55:26.243Z,620.48
2022-12-17T15:56:32.864Z,648.03
2022-12-17T15:57:36.309Z,647.69
2022-12-17T15:58:42.341Z,616.65
2022-12-17T15:59:45.724Z,643.91
2022-12-17T16:00:52.621Z,674.98
2022-12-17T16:01:56.027Z,658.06
2022-12-17T16:03:02.259Z,622.28
2022-12-17T16:04:09.180Z,617.00
2022-12-17T16:05:21.069Z,600.63
2022-12-17T16:06:28.141Z,592.09
2022-12-17T16:07:31.818Z,570.42
2022-12-17T16:08:41.517Z,568.35
2022-12-17T16:09:45.273Z,572.36
2022-12-17T16:10:52.281Z,571.55
2022-12-17T16:11:57.860Z,556.96
2022-12-17T16:13:03.947Z,583.54
2022-12-17T16:14:07.498Z,580.00
2022-12-17T16:15:15.625Z,569.28
2022-12-17T16:16:19.049Z,550.86
2022-12-17T16:17:26.062Z,533.83
2022-12-17T16:18:29.904Z,536.21
2022-12-17T16:19:35.922Z,546.73
2022-12-17T16:20:41.995Z,514.73
2022-12-17T16:21:47.105Z,560.28
2022-12-17T16:22:54.379Z,602.69
2022-12-17T16:24:03.014Z,587.10
2022-12-17T16:25:07.789Z,527.81
2022-12-17T16:26:15.099Z,510.25
2022-12-17T16:27:21.837Z,497.41
2022-12-17T16:28:27.055Z,514.71
2022-12-17T16:29:33.111Z,522.76
2022-12-17T16:30:36.660Z,536.17
2022-12-17T16:31:42.818Z,530.16
2022-12-17T16:32:48.887Z,530.10
2022-12-17T16:33:53.104Z,504.54
2022-12-17T16:34:59.048Z,521.93